sensor_id;sensor_type;location;lat;lon;timestamp;P1;durP1;ratioP1;P2;durP2;ratioP2
10174;SDS011;18221;38.704;0.152;2023-02-14T00:05:51;3.57;;;3.20;;
10174;SDS011;18221;38.704;0.152;2023-02-14T00:08:22;3.33;;;3.03;;
10174;SDS011;18221;38.704;0.152;2023-02-14T00:10:51;4.53;;;3.33;;
10174;SDS011;18221;38.704;0.152;2023-02-14T00:13:19;6.83;;;3.43;;
10174;SDS011;18221;38.704;0.152;2023-02-14T00:15:48;3.33;;;3.03;;
10174;SDS011;18221;38.704;0.152;2023-02-14T00:18:15;4.50;;;3.00;;
10174;SDS011;18221;38.704;0.152;2023-02-14T00:20:44;3.53;;;3.20;;
10174;SDS011;18221;38.704;0.152;2023-02-14T00:23:14;3.23;;;2.93;;
10174;SDS011;18221;38.704;0.152;2023-02-14T00:25:42;3.33;;;2.80;;
10174;SDS011;18221;38.704;0.152;2023-02-14T00:28:11;3.17;;;2.80;;
10174;SDS011;18221;38.704;0.152;2023-02-14T00:30:39;3.20;;;2.97;;
10174;SDS011;18221;38.704;0.152;2023-02-14T00:33:08;4.97;;;3.30;;
10174;SDS011;18221;38.704;0.152;2023-02-14T00:35:36;5.33;;;3.20;;
10174;SDS011;18221;38.704;0.152;2023-02-14T00:38:05;3.17;;;2.87;;
10174;SDS011;18221;38.704;0.152;2023-02-14T00:40:35;3.27;;;2.97;;
10174;SDS011;18221;38.704;0.152;2023-02-14T00:43:03;3.37;;;3.00;;
10174;SDS011;18221;38.704;0.152;2023-02-14T00:45:32;3.77;;;2.90;;
10174;SDS011;18221;38.704;0.152;2023-02-14T00:48:00;3.03;;;2.77;;
10174;SDS011;18221;38.704;0.152;2023-02-14T00:50:29;3.60;;;2.70;;
10174;SDS011;18221;38.704;0.152;2023-02-14T00:52:58;3.83;;;2.70;;
10174;SDS011;18221;38.704;0.152;2023-02-14T00:55:27;4.67;;;3.30;;
10174;SDS011;18221;38.704;0.152;2023-02-14T00:57:57;3.30;;;2.57;;
10174;SDS011;18221;38.704;0.152;2023-02-14T01:00:26;3.40;;;3.10;;
10174;SDS011;18221;38.704;0.152;2023-02-14T01:02:54;3.70;;;2.90;;
10174;SDS011;18221;38.704;0.152;2023-02-14T01:05:23;4.07;;;3.10;;
10174;SDS011;18221;38.704;0.152;2023-02-14T01:07:51;3.73;;;2.87;;
10174;SDS011;18221;38.704;0.152;2023-02-14T01:10:19;4.03;;;3.50;;
10174;SDS011;18221;38.704;0.152;2023-02-14T01:12:48;4.00;;;3.00;;
10174;SDS011;18221;38.704;0.152;2023-02-14T01:15:18;5.10;;;3.03;;
10174;SDS011;18221;38.704;0.152;2023-02-14T01:17:46;4.63;;;3.10;;
10174;SDS011;18221;38.704;0.152;2023-02-14T01:20:15;3.70;;;3.40;;
10174;SDS011;18221;38.704;0.152;2023-02-14T01:22:44;3.80;;;3.40;;
10174;SDS011;18221;38.704;0.152;2023-02-14T01:25:12;6.93;;;3.30;;
10174;SDS011;18221;38.704;0.152;2023-02-14T01:27:41;3.73;;;3.20;;
10174;SDS011;18221;38.704;0.152;2023-02-14T01:30:10;4.77;;;3.30;;
10174;SDS011;18221;38.704;0.152;2023-02-14T01:32:42;4.00;;;3.50;;
10174;SDS011;18221;38.704;0.152;2023-02-14T01:35:10;4.00;;;2.97;;
10174;SDS011;18221;38.704;0.152;2023-02-14T01:37:39;5.33;;;2.90;;
10174;SDS011;18221;38.704;0.152;2023-02-14T01:40:08;3.70;;;3.10;;
10174;SDS011;18221;38.704;0.152;2023-02-14T01:42:39;3.30;;;3.00;;
10174;SDS011;18221;38.704;0.152;2023-02-14T01:45:09;3.90;;;3.00;;
10174;SDS011;18221;38.704;0.152;2023-02-14T01:47:47;4.37;;;3.47;;
10174;SDS011;18221;38.704;0.152;2023-02-14T01:50:20;4.00;;;3.57;;
10174;SDS011;18221;38.704;0.152;2023-02-14T01:52:56;4.33;;;3.47;;
10174;SDS011;18221;38.704;0.152;2023-02-14T01:55:31;5.03;;;3.60;;
10174;SDS011;18221;38.704;0.152;2023-02-14T01:58:05;3.50;;;3.20;;
10174;SDS011;18221;38.704;0.152;2023-02-14T02:00:41;4.33;;;3.50;;
10174;SDS011;18221;38.704;0.152;2023-02-14T02:03:27;3.40;;;3.10;;
10174;SDS011;18221;38.704;0.152;2023-02-14T02:06:04;6.50;;;3.10;;
10174;SDS011;18221;38.704;0.152;2023-02-14T02:08:40;5.77;;;3.63;;
10174;SDS011;18221;38.704;0.152;2023-02-14T02:11:18;3.70;;;3.40;;
10174;SDS011;18221;38.704;0.152;2023-02-14T02:13:46;4.07;;;3.50;;
10174;SDS011;18221;38.704;0.152;2023-02-14T02:16:20;4.57;;;3.53;;
10174;SDS011;18221;38.704;0.152;2023-02-14T02:19:26;3.53;;;3.23;;
10174;SDS011;18221;38.704;0.152;2023-02-14T02:22:43;7.40;;;3.87;;
10174;SDS011;18221;38.704;0.152;2023-02-14T02:26:10;3.50;;;3.20;;
10174;SDS011;18221;38.704;0.152;2023-02-14T02:33:18;3.73;;;3.33;;
10174;SDS011;18221;38.704;0.152;2023-02-14T02:39:28;3.97;;;3.33;;
10174;SDS011;18221;38.704;0.152;2023-02-14T02:42:15;4.03;;;3.40;;
10174;SDS011;18221;38.704;0.152;2023-02-14T02:44:56;4.50;;;3.07;;
10174;SDS011;18221;38.704;0.152;2023-02-14T02:47:40;3.73;;;3.43;;
10174;SDS011;18221;38.704;0.152;2023-02-14T02:50:21;4.23;;;3.23;;
10174;SDS011;18221;38.704;0.152;2023-02-14T02:53:15;4.57;;;3.33;;
10174;SDS011;18221;38.704;0.152;2023-02-14T02:55:54;3.90;;;3.50;;
10174;SDS011;18221;38.704;0.152;2023-02-14T02:59:02;3.60;;;3.30;;
10174;SDS011;18221;38.704;0.152;2023-02-14T03:01:43;3.77;;;3.30;;
10174;SDS011;18221;38.704;0.152;2023-02-14T03:04:18;5.70;;;3.57;;
10174;SDS011;18221;38.704;0.152;2023-02-14T03:07:05;4.17;;;3.30;;
10174;SDS011;18221;38.704;0.152;2023-02-14T03:09:53;5.07;;;3.73;;
10174;SDS011;18221;38.704;0.152;2023-02-14T03:15:51;5.90;;;3.73;;
10174;SDS011;18221;38.704;0.152;2023-02-14T03:19:03;4.53;;;3.50;;
10174;SDS011;18221;38.704;0.152;2023-02-14T03:21:53;3.40;;;3.10;;
10174;SDS011;18221;38.704;0.152;2023-02-14T03:24:35;4.30;;;3.30;;
10174;SDS011;18221;38.704;0.152;2023-02-14T03:27:17;3.87;;;3.20;;
10174;SDS011;18221;38.704;0.152;2023-02-14T03:29:55;4.73;;;3.13;;
10174;SDS011;18221;38.704;0.152;2023-02-14T03:32:36;3.70;;;3.40;;
10174;SDS011;18221;38.704;0.152;2023-02-14T03:35:14;3.93;;;3.17;;
10174;SDS011;18221;38.704;0.152;2023-02-14T03:37:50;3.47;;;3.17;;
10174;SDS011;18221;38.704;0.152;2023-02-14T03:40:27;6.03;;;3.27;;
10174;SDS011;18221;38.704;0.152;2023-02-14T03:43:04;4.53;;;3.30;;
10174;SDS011;18221;38.704;0.152;2023-02-14T03:45:38;4.90;;;3.70;;
10174;SDS011;18221;38.704;0.152;2023-02-14T03:48:13;5.10;;;3.30;;
10174;SDS011;18221;38.704;0.152;2023-02-14T03:50:45;6.13;;;3.57;;
10174;SDS011;18221;38.704;0.152;2023-02-14T03:53:17;3.93;;;3.37;;
10174;SDS011;18221;38.704;0.152;2023-02-14T03:55:52;4.10;;;3.13;;
10174;SDS011;18221;38.704;0.152;2023-02-14T03:58:30;3.67;;;3.20;;
10174;SDS011;18221;38.704;0.152;2023-02-14T04:01:05;6.93;;;3.90;;
10174;SDS011;18221;38.704;0.152;2023-02-14T04:03:40;3.70;;;3.40;;
10174;SDS011;18221;38.704;0.152;2023-02-14T04:06:10;3.73;;;3.43;;
10174;SDS011;18221;38.704;0.152;2023-02-14T04:08:39;3.87;;;3.47;;
10174;SDS011;18221;38.704;0.152;2023-02-14T04:11:07;3.37;;;3.07;;
10174;SDS011;18221;38.704;0.152;2023-02-14T04:13:37;3.97;;;3.60;;
10174;SDS011;18221;38.704;0.152;2023-02-14T04:16:06;4.80;;;3.40;;
10174;SDS011;18221;38.704;0.152;2023-02-14T04:18:34;5.03;;;3.47;;
10174;SDS011;18221;38.704;0.152;2023-02-14T04:21:20;3.47;;;3.10;;
10174;SDS011;18221;38.704;0.152;2023-02-14T04:23:48;3.30;;;3.00;;
10174;SDS011;18221;38.704;0.152;2023-02-14T04:26:17;5.20;;;3.80;;
10174;SDS011;18221;38.704;0.152;2023-02-14T04:28:47;3.47;;;3.17;;
10174;SDS011;18221;38.704;0.152;2023-02-14T04:31:15;4.03;;;3.60;;
10174;SDS011;18221;38.704;0.152;2023-02-14T04:33:44;6.67;;;3.47;;
10174;SDS011;18221;38.704;0.152;2023-02-14T04:36:12;3.03;;;2.83;;
10174;SDS011;18221;38.704;0.152;2023-02-14T04:38:41;4.33;;;3.03;;
10174;SDS011;18221;38.704;0.152;2023-02-14T04:41:09;4.33;;;3.23;;
10174;SDS011;18221;38.704;0.152;2023-02-14T04:43:38;4.23;;;3.20;;
10174;SDS011;18221;38.704;0.152;2023-02-14T04:46:07;3.57;;;3.10;;
10174;SDS011;18221;38.704;0.152;2023-02-14T04:48:36;4.23;;;3.30;;
10174;SDS011;18221;38.704;0.152;2023-02-14T04:51:04;3.77;;;3.40;;
10174;SDS011;18221;38.704;0.152;2023-02-14T04:53:33;3.70;;;3.20;;
10174;SDS011;18221;38.704;0.152;2023-02-14T04:56:04;3.60;;;3.30;;
10174;SDS011;18221;38.704;0.152;2023-02-14T04:58:33;3.67;;;3.37;;
10174;SDS011;18221;38.704;0.152;2023-02-14T05:01:02;3.90;;;3.60;;
10174;SDS011;18221;38.704;0.152;2023-02-14T05:03:32;3.60;;;3.30;;
10174;SDS011;18221;38.704;0.152;2023-02-14T05:06:00;3.77;;;3.20;;
10174;SDS011;18221;38.704;0.152;2023-02-14T05:08:29;3.73;;;3.37;;
10174;SDS011;18221;38.704;0.152;2023-02-14T05:10:57;3.77;;;3.30;;
10174;SDS011;18221;38.704;0.152;2023-02-14T05:13:25;4.13;;;3.47;;
10174;SDS011;18221;38.704;0.152;2023-02-14T05:15:54;4.80;;;3.40;;
10174;SDS011;18221;38.704;0.152;2023-02-14T05:18:22;3.93;;;3.63;;
10174;SDS011;18221;38.704;0.152;2023-02-14T05:20:56;4.00;;;3.60;;
10174;SDS011;18221;38.704;0.152;2023-02-14T05:23:25;6.17;;;4.20;;
10174;SDS011;18221;38.704;0.152;2023-02-14T05:25:53;4.40;;;3.80;;
10174;SDS011;18221;38.704;0.152;2023-02-14T05:28:22;4.10;;;3.70;;
10174;SDS011;18221;38.704;0.152;2023-02-14T05:30:50;4.30;;;3.90;;
10174;SDS011;18221;38.704;0.152;2023-02-14T05:33:21;4.20;;;3.27;;
10174;SDS011;18221;38.704;0.152;2023-02-14T05:35:50;3.90;;;3.50;;
10174;SDS011;18221;38.704;0.152;2023-02-14T05:38:20;5.10;;;4.07;;
10174;SDS011;18221;38.704;0.152;2023-02-14T05:40:48;4.53;;;3.50;;
10174;SDS011;18221;38.704;0.152;2023-02-14T05:43:17;4.63;;;3.97;;
10174;SDS011;18221;38.704;0.152;2023-02-14T05:45:45;5.37;;;4.00;;
10174;SDS011;18221;38.704;0.152;2023-02-14T05:48:14;5.60;;;4.20;;
10174;SDS011;18221;38.704;0.152;2023-02-14T05:50:42;4.80;;;4.40;;
10174;SDS011;18221;38.704;0.152;2023-02-14T05:53:13;5.43;;;4.03;;
10174;SDS011;18221;38.704;0.152;2023-02-14T05:55:44;5.00;;;4.17;;
10174;SDS011;18221;38.704;0.152;2023-02-14T05:58:12;5.50;;;4.17;;
10174;SDS011;18221;38.704;0.152;2023-02-14T06:00:41;4.60;;;4.20;;
10174;SDS011;18221;38.704;0.152;2023-02-14T06:03:09;5.60;;;4.67;;
10174;SDS011;18221;38.704;0.152;2023-02-14T06:05:37;5.47;;;4.53;;
10174;SDS011;18221;38.704;0.152;2023-02-14T06:08:06;5.47;;;4.97;;
10174;SDS011;18221;38.704;0.152;2023-02-14T06:10:34;4.83;;;4.33;;
10174;SDS011;18221;38.704;0.152;2023-02-14T06:13:05;5.23;;;4.73;;
10174;SDS011;18221;38.704;0.152;2023-02-14T06:15:35;6.03;;;5.00;;
10174;SDS011;18221;38.704;0.152;2023-02-14T06:18:04;7.23;;;5.77;;
10174;SDS011;18221;38.704;0.152;2023-02-14T06:20:32;5.80;;;5.20;;
10174;SDS011;18221;38.704;0.152;2023-02-14T06:23:01;6.77;;;5.40;;
10174;SDS011;18221;38.704;0.152;2023-02-14T06:25:30;8.03;;;6.30;;
10174;SDS011;18221;38.704;0.152;2023-02-14T06:27:59;7.10;;;5.77;;
10174;SDS011;18221;38.704;0.152;2023-02-14T06:30:32;6.80;;;6.00;;
10174;SDS011;18221;38.704;0.152;2023-02-14T06:33:01;8.63;;;6.00;;
10174;SDS011;18221;38.704;0.152;2023-02-14T06:35:29;6.80;;;6.10;;
10174;SDS011;18221;38.704;0.152;2023-02-14T06:37:58;7.17;;;6.43;;
10174;SDS011;18221;38.704;0.152;2023-02-14T06:40:26;8.07;;;6.60;;
10174;SDS011;18221;38.704;0.152;2023-02-14T06:42:57;8.70;;;6.40;;
10174;SDS011;18221;38.704;0.152;2023-02-14T06:45:26;6.70;;;6.07;;
10174;SDS011;18221;38.704;0.152;2023-02-14T06:47:56;9.10;;;6.73;;
10174;SDS011;18221;38.704;0.152;2023-02-14T06:50:24;7.10;;;6.03;;
10174;SDS011;18221;38.704;0.152;2023-02-14T06:52:55;9.80;;;6.37;;
10174;SDS011;18221;38.704;0.152;2023-02-14T06:55:24;8.33;;;5.80;;
10174;SDS011;18221;38.704;0.152;2023-02-14T06:57:52;7.50;;;6.23;;
10174;SDS011;18221;38.704;0.152;2023-02-14T07:00:21;6.80;;;6.10;;
10174;SDS011;18221;38.704;0.152;2023-02-14T07:02:49;7.23;;;6.13;;
10174;SDS011;18221;38.704;0.152;2023-02-14T07:05:20;6.13;;;5.53;;
10174;SDS011;18221;38.704;0.152;2023-02-14T07:07:49;9.87;;;5.77;;
10174;SDS011;18221;38.704;0.152;2023-02-14T07:10:17;8.47;;;5.97;;
10174;SDS011;18221;38.704;0.152;2023-02-14T07:12:46;8.33;;;6.80;;
10174;SDS011;18221;38.704;0.152;2023-02-14T07:15:14;7.73;;;6.90;;
10174;SDS011;18221;38.704;0.152;2023-02-14T07:17:43;7.87;;;6.57;;
10174;SDS011;18221;38.704;0.152;2023-02-14T07:20:12;10.87;;;7.30;;
10174;SDS011;18221;38.704;0.152;2023-02-14T07:22:44;8.27;;;6.57;;
10174;SDS011;18221;38.704;0.152;2023-02-14T07:25:12;8.47;;;6.37;;
10174;SDS011;18221;38.704;0.152;2023-02-14T07:27:41;9.60;;;7.13;;
10174;SDS011;18221;38.704;0.152;2023-02-14T07:30:10;12.13;;;7.50;;
10174;SDS011;18221;38.704;0.152;2023-02-14T07:32:41;8.33;;;7.40;;
10174;SDS011;18221;38.704;0.152;2023-02-14T07:35:09;9.73;;;7.37;;
10174;SDS011;18221;38.704;0.152;2023-02-14T07:37:38;9.27;;;7.73;;
10174;SDS011;18221;38.704;0.152;2023-02-14T07:40:09;8.40;;;7.60;;
10174;SDS011;18221;38.704;0.152;2023-02-14T07:42:38;10.87;;;7.60;;
10174;SDS011;18221;38.704;0.152;2023-02-14T07:45:08;9.17;;;7.60;;
10174;SDS011;18221;38.704;0.152;2023-02-14T07:47:37;12.37;;;8.47;;
10174;SDS011;18221;38.704;0.152;2023-02-14T07:50:06;10.50;;;8.47;;
10174;SDS011;18221;38.704;0.152;2023-02-14T07:52:35;10.00;;;8.97;;
10174;SDS011;18221;38.704;0.152;2023-02-14T07:55:03;18.20;;;9.43;;
10174;SDS011;18221;38.704;0.152;2023-02-14T07:57:34;10.90;;;8.70;;
10174;SDS011;18221;38.704;0.152;2023-02-14T08:00:02;12.07;;;9.20;;
10174;SDS011;18221;38.704;0.152;2023-02-14T08:02:32;12.50;;;9.57;;
10174;SDS011;18221;38.704;0.152;2023-02-14T08:05:01;10.17;;;9.13;;
10174;SDS011;18221;38.704;0.152;2023-02-14T08:07:30;10.87;;;9.57;;
10174;SDS011;18221;38.704;0.152;2023-02-14T08:09:59;10.00;;;8.93;;
10174;SDS011;18221;38.704;0.152;2023-02-14T08:12:27;9.73;;;8.73;;
10174;SDS011;18221;38.704;0.152;2023-02-14T08:15:14;9.80;;;8.80;;
10174;SDS011;18221;38.704;0.152;2023-02-14T08:18:00;12.67;;;9.63;;
10174;SDS011;18221;38.704;0.152;2023-02-14T08:20:29;10.40;;;8.60;;
10174;SDS011;18221;38.704;0.152;2023-02-14T08:22:58;9.23;;;8.33;;
10174;SDS011;18221;38.704;0.152;2023-02-14T08:25:26;11.17;;;8.60;;
10174;SDS011;18221;38.704;0.152;2023-02-14T08:27:55;8.60;;;7.73;;
10174;SDS011;18221;38.704;0.152;2023-02-14T08:30:25;8.80;;;7.90;;
10174;SDS011;18221;38.704;0.152;2023-02-14T08:32:54;9.03;;;7.87;;
10174;SDS011;18221;38.704;0.152;2023-02-14T08:35:22;10.90;;;8.87;;
10174;SDS011;18221;38.704;0.152;2023-02-14T08:37:51;9.67;;;8.57;;
10174;SDS011;18221;38.704;0.152;2023-02-14T08:40:19;8.87;;;7.97;;
10174;SDS011;18221;38.704;0.152;2023-02-14T08:42:48;12.13;;;8.03;;
10174;SDS011;18221;38.704;0.152;2023-02-14T08:45:17;8.50;;;7.63;;
10174;SDS011;18221;38.704;0.152;2023-02-14T08:47:47;8.43;;;7.57;;
10174;SDS011;18221;38.704;0.152;2023-02-14T08:50:17;8.43;;;7.63;;
10174;SDS011;18221;38.704;0.152;2023-02-14T08:52:46;8.03;;;7.23;;
10174;SDS011;18221;38.704;0.152;2023-02-14T08:55:14;8.90;;;7.70;;
10174;SDS011;18221;38.704;0.152;2023-02-14T08:57:43;11.90;;;7.63;;
10174;SDS011;18221;38.704;0.152;2023-02-14T09:00:13;8.20;;;7.30;;
10174;SDS011;18221;38.704;0.152;2023-02-14T09:02:43;8.33;;;7.13;;
10174;SDS011;18221;38.704;0.152;2023-02-14T09:05:17;10.47;;;7.77;;
10174;SDS011;18221;38.704;0.152;2023-02-14T09:07:47;8.57;;;7.57;;
10174;SDS011;18221;38.704;0.152;2023-02-14T09:10:16;10.43;;;7.87;;
10174;SDS011;18221;38.704;0.152;2023-02-14T09:12:45;9.67;;;7.30;;
10174;SDS011;18221;38.704;0.152;2023-02-14T09:15:15;11.33;;;7.47;;
10174;SDS011;18221;38.704;0.152;2023-02-14T09:17:43;7.93;;;7.13;;
10174;SDS011;18221;38.704;0.152;2023-02-14T09:20:13;10.73;;;8.17;;
10174;SDS011;18221;38.704;0.152;2023-02-14T09:22:45;7.90;;;7.10;;
10174;SDS011;18221;38.704;0.152;2023-02-14T09:25:13;9.80;;;7.50;;
10174;SDS011;18221;38.704;0.152;2023-02-14T09:27:42;10.13;;;7.07;;
10174;SDS011;18221;38.704;0.152;2023-02-14T09:30:11;9.87;;;6.93;;
10174;SDS011;18221;38.704;0.152;2023-02-14T09:32:41;9.37;;;6.57;;
10174;SDS011;18221;38.704;0.152;2023-02-14T09:35:09;7.87;;;7.07;;
10174;SDS011;18221;38.704;0.152;2023-02-14T09:37:40;7.73;;;6.07;;
10174;SDS011;18221;38.704;0.152;2023-02-14T09:40:25;7.53;;;6.20;;
10174;SDS011;18221;38.704;0.152;2023-02-14T09:42:56;6.47;;;5.87;;
10174;SDS011;18221;38.704;0.152;2023-02-14T09:45:35;9.67;;;6.97;;
10174;SDS011;18221;38.704;0.152;2023-02-14T09:48:05;7.97;;;6.40;;
10174;SDS011;18221;38.704;0.152;2023-02-14T09:50:46;6.47;;;5.77;;
10174;SDS011;18221;38.704;0.152;2023-02-14T09:53:21;6.67;;;5.67;;
10174;SDS011;18221;38.704;0.152;2023-02-14T09:55:57;5.87;;;5.20;;
10174;SDS011;18221;38.704;0.152;2023-02-14T09:58:35;7.00;;;5.40;;
10174;SDS011;18221;38.704;0.152;2023-02-14T10:01:16;5.20;;;4.70;;
10174;SDS011;18221;38.704;0.152;2023-02-14T10:04:03;5.93;;;5.33;;
10174;SDS011;18221;38.704;0.152;2023-02-14T10:06:48;5.13;;;4.63;;
10174;SDS011;18221;38.704;0.152;2023-02-14T10:09:40;5.47;;;3.63;;
10174;SDS011;18221;38.704;0.152;2023-02-14T10:12:23;8.17;;;3.90;;
10174;SDS011;18221;38.704;0.152;2023-02-14T10:14:58;6.07;;;3.93;;
10174;SDS011;18221;38.704;0.152;2023-02-14T10:17:46;7.17;;;4.73;;
10174;SDS011;18221;38.704;0.152;2023-02-14T10:20:21;7.27;;;4.90;;
10174;SDS011;18221;38.704;0.152;2023-02-14T10:22:58;5.20;;;4.53;;
10174;SDS011;18221;38.704;0.152;2023-02-14T10:25:50;5.13;;;3.70;;
10174;SDS011;18221;38.704;0.152;2023-02-14T10:28:29;5.67;;;3.70;;
10174;SDS011;18221;38.704;0.152;2023-02-14T10:31:10;6.60;;;3.80;;
10174;SDS011;18221;38.704;0.152;2023-02-14T10:33:53;4.53;;;3.50;;
10174;SDS011;18221;38.704;0.152;2023-02-14T10:36:41;5.23;;;3.70;;
10174;SDS011;18221;38.704;0.152;2023-02-14T10:39:43;5.77;;;3.73;;
10174;SDS011;18221;38.704;0.152;2023-02-14T10:42:35;5.40;;;3.47;;
10174;SDS011;18221;38.704;0.152;2023-02-14T10:45:17;5.97;;;3.50;;
10174;SDS011;18221;38.704;0.152;2023-02-14T10:47:57;4.63;;;3.63;;
10174;SDS011;18221;38.704;0.152;2023-02-14T10:50:38;4.53;;;3.90;;
10174;SDS011;18221;38.704;0.152;2023-02-14T10:53:19;4.00;;;3.53;;
10174;SDS011;18221;38.704;0.152;2023-02-14T10:56:00;5.37;;;3.60;;
10174;SDS011;18221;38.704;0.152;2023-02-14T10:58:39;5.43;;;4.10;;
10174;SDS011;18221;38.704;0.152;2023-02-14T11:01:09;4.60;;;3.67;;
10174;SDS011;18221;38.704;0.152;2023-02-14T11:03:48;5.00;;;3.50;;
10174;SDS011;18221;38.704;0.152;2023-02-14T11:06:22;5.90;;;3.80;;
10174;SDS011;18221;38.704;0.152;2023-02-14T11:08:51;9.33;;;4.33;;
10174;SDS011;18221;38.704;0.152;2023-02-14T11:11:20;4.20;;;3.80;;
10174;SDS011;18221;38.704;0.152;2023-02-14T11:13:58;6.90;;;3.87;;
10174;SDS011;18221;38.704;0.152;2023-02-14T11:16:45;7.33;;;4.40;;
10174;SDS011;18221;38.704;0.152;2023-02-14T11:19:20;5.37;;;4.03;;
10174;SDS011;18221;38.704;0.152;2023-02-14T11:21:52;6.17;;;4.60;;
10174;SDS011;18221;38.704;0.152;2023-02-14T11:24:26;5.83;;;3.70;;
10174;SDS011;18221;38.704;0.152;2023-02-14T11:26:58;6.83;;;3.97;;
10174;SDS011;18221;38.704;0.152;2023-02-14T11:29:32;5.30;;;3.93;;
10174;SDS011;18221;38.704;0.152;2023-02-14T11:32:10;7.90;;;4.47;;
10174;SDS011;18221;38.704;0.152;2023-02-14T11:34:51;8.03;;;4.10;;
10174;SDS011;18221;38.704;0.152;2023-02-14T11:37:29;6.73;;;4.70;;
10174;SDS011;18221;38.704;0.152;2023-02-14T11:40:09;5.63;;;3.80;;
10174;SDS011;18221;38.704;0.152;2023-02-14T11:42:54;5.13;;;3.50;;
10174;SDS011;18221;38.704;0.152;2023-02-14T11:45:29;7.33;;;3.70;;
10174;SDS011;18221;38.704;0.152;2023-02-14T11:50:55;5.73;;;3.37;;
10174;SDS011;18221;38.704;0.152;2023-02-14T11:53:31;6.33;;;3.43;;
10174;SDS011;18221;38.704;0.152;2023-02-14T11:56:10;5.33;;;3.60;;
10174;SDS011;18221;38.704;0.152;2023-02-14T11:58:43;5.20;;;3.40;;
10174;SDS011;18221;38.704;0.152;2023-02-14T12:01:24;6.63;;;3.50;;
10174;SDS011;18221;38.704;0.152;2023-02-14T12:03:58;5.97;;;3.70;;
10174;SDS011;18221;38.704;0.152;2023-02-14T12:06:33;5.73;;;3.70;;
10174;SDS011;18221;38.704;0.152;2023-02-14T12:09:12;5.23;;;3.53;;
10174;SDS011;18221;38.704;0.152;2023-02-14T12:11:54;4.87;;;3.33;;
10174;SDS011;18221;38.704;0.152;2023-02-14T12:14:26;4.97;;;3.70;;
10174;SDS011;18221;38.704;0.152;2023-02-14T12:16:59;5.27;;;3.80;;
10174;SDS011;18221;38.704;0.152;2023-02-14T12:19:39;4.97;;;3.73;;
10174;SDS011;18221;38.704;0.152;2023-02-14T12:22:15;7.70;;;4.20;;
10174;SDS011;18221;38.704;0.152;2023-02-14T12:24:49;5.33;;;3.40;;
10174;SDS011;18221;38.704;0.152;2023-02-14T12:27:29;4.17;;;3.60;;
10174;SDS011;18221;38.704;0.152;2023-02-14T12:30:09;4.43;;;3.73;;
10174;SDS011;18221;38.704;0.152;2023-02-14T12:32:45;4.97;;;3.70;;
10174;SDS011;18221;38.704;0.152;2023-02-14T12:35:17;5.70;;;3.87;;
10174;SDS011;18221;38.704;0.152;2023-02-14T12:38:06;5.13;;;3.87;;
10174;SDS011;18221;38.704;0.152;2023-02-14T12:40:49;5.07;;;3.90;;
10174;SDS011;18221;38.704;0.152;2023-02-14T12:43:33;5.63;;;3.67;;
10174;SDS011;18221;38.704;0.152;2023-02-14T12:49:21;6.80;;;4.50;;
10174;SDS011;18221;38.704;0.152;2023-02-14T12:52:17;6.53;;;4.60;;
10174;SDS011;18221;38.704;0.152;2023-02-14T12:55:12;8.23;;;5.63;;
10174;SDS011;18221;38.704;0.152;2023-02-14T12:58:01;6.53;;;4.87;;
10174;SDS011;18221;38.704;0.152;2023-02-14T13:00:47;7.83;;;5.40;;
10174;SDS011;18221;38.704;0.152;2023-02-14T13:03:40;8.10;;;5.37;;
10174;SDS011;18221;38.704;0.152;2023-02-14T13:06:28;6.47;;;3.70;;
10174;SDS011;18221;38.704;0.152;2023-02-14T13:09:05;8.40;;;3.63;;
10174;SDS011;18221;38.704;0.152;2023-02-14T13:11:53;3.37;;;3.07;;
10174;SDS011;18221;38.704;0.152;2023-02-14T13:14:49;4.07;;;2.80;;
10174;SDS011;18221;38.704;0.152;2023-02-14T13:17:33;3.13;;;2.70;;
10174;SDS011;18221;38.704;0.152;2023-02-14T13:23:15;4.40;;;2.67;;
10174;SDS011;18221;38.704;0.152;2023-02-14T13:25:52;5.30;;;2.83;;
10174;SDS011;18221;38.704;0.152;2023-02-14T13:28:29;4.77;;;2.80;;
10174;SDS011;18221;38.704;0.152;2023-02-14T13:30:59;4.10;;;2.80;;
10174;SDS011;18221;38.704;0.152;2023-02-14T13:33:30;5.20;;;3.13;;
10174;SDS011;18221;38.704;0.152;2023-02-14T13:36:05;6.00;;;3.00;;
10174;SDS011;18221;38.704;0.152;2023-02-14T13:38:39;4.07;;;2.90;;
10174;SDS011;18221;38.704;0.152;2023-02-14T13:41:13;3.13;;;2.50;;
10174;SDS011;18221;38.704;0.152;2023-02-14T13:43:45;3.30;;;2.60;;
10174;SDS011;18221;38.704;0.152;2023-02-14T13:52:00;3.93;;;2.80;;
10174;SDS011;18221;38.704;0.152;2023-02-14T13:54:37;4.87;;;2.67;;
10174;SDS011;18221;38.704;0.152;2023-02-14T13:57:24;4.20;;;2.73;;
10174;SDS011;18221;38.704;0.152;2023-02-14T14:03:05;4.53;;;2.67;;
10174;SDS011;18221;38.704;0.152;2023-02-14T14:08:37;4.17;;;3.10;;
10174;SDS011;18221;38.704;0.152;2023-02-14T14:14:31;5.67;;;3.13;;
10174;SDS011;18221;38.704;0.152;2023-02-14T14:17:16;3.40;;;2.50;;
10174;SDS011;18221;38.704;0.152;2023-02-14T14:19:52;7.27;;;3.23;;
10174;SDS011;18221;38.704;0.152;2023-02-14T14:22:22;4.93;;;3.20;;
10174;SDS011;18221;38.704;0.152;2023-02-14T14:24:56;4.03;;;2.73;;
10174;SDS011;18221;38.704;0.152;2023-02-14T14:27:32;5.20;;;2.90;;
10174;SDS011;18221;38.704;0.152;2023-02-14T14:30:14;4.33;;;2.63;;
10174;SDS011;18221;38.704;0.152;2023-02-14T14:32:50;5.10;;;2.60;;
10174;SDS011;18221;38.704;0.152;2023-02-14T14:35:20;5.03;;;2.97;;
10174;SDS011;18221;38.704;0.152;2023-02-14T14:37:52;3.43;;;2.60;;
10174;SDS011;18221;38.704;0.152;2023-02-14T14:40:23;4.47;;;2.97;;
10174;SDS011;18221;38.704;0.152;2023-02-14T14:42:59;4.50;;;2.70;;
10174;SDS011;18221;38.704;0.152;2023-02-14T14:45:39;6.67;;;2.80;;
10174;SDS011;18221;38.704;0.152;2023-02-14T14:48:15;4.50;;;2.60;;
10174;SDS011;18221;38.704;0.152;2023-02-14T14:50:52;3.43;;;2.47;;
10174;SDS011;18221;38.704;0.152;2023-02-14T14:53:22;3.80;;;2.53;;
10174;SDS011;18221;38.704;0.152;2023-02-14T14:55:55;6.17;;;2.90;;
10174;SDS011;18221;38.704;0.152;2023-02-14T14:58:36;3.33;;;2.50;;
10174;SDS011;18221;38.704;0.152;2023-02-14T15:01:09;3.83;;;2.50;;
10174;SDS011;18221;38.704;0.152;2023-02-14T15:03:53;7.13;;;3.00;;
10174;SDS011;18221;38.704;0.152;2023-02-14T15:06:33;6.37;;;2.87;;
10174;SDS011;18221;38.704;0.152;2023-02-14T15:09:10;3.03;;;2.70;;
10174;SDS011;18221;38.704;0.152;2023-02-14T15:11:42;6.30;;;3.40;;
10174;SDS011;18221;38.704;0.152;2023-02-14T15:14:32;3.90;;;2.70;;
10174;SDS011;18221;38.704;0.152;2023-02-14T15:17:06;4.67;;;3.00;;
10174;SDS011;18221;38.704;0.152;2023-02-14T15:19:46;4.43;;;2.90;;
10174;SDS011;18221;38.704;0.152;2023-02-14T15:22:21;4.03;;;3.00;;
10174;SDS011;18221;38.704;0.152;2023-02-14T15:24:54;6.03;;;2.73;;
10174;SDS011;18221;38.704;0.152;2023-02-14T15:27:25;4.57;;;2.90;;
10174;SDS011;18221;38.704;0.152;2023-02-14T15:29:57;4.50;;;2.73;;
10174;SDS011;18221;38.704;0.152;2023-02-14T15:32:29;5.07;;;2.80;;
10174;SDS011;18221;38.704;0.152;2023-02-14T15:35:02;4.87;;;2.90;;
10174;SDS011;18221;38.704;0.152;2023-02-14T15:37:37;5.20;;;3.20;;
10174;SDS011;18221;38.704;0.152;2023-02-14T15:40:07;4.17;;;3.00;;
10174;SDS011;18221;38.704;0.152;2023-02-14T15:42:43;6.20;;;3.23;;
10174;SDS011;18221;38.704;0.152;2023-02-14T15:45:15;5.20;;;3.23;;
10174;SDS011;18221;38.704;0.152;2023-02-14T15:47:48;4.17;;;3.00;;
10174;SDS011;18221;38.704;0.152;2023-02-14T15:50:21;5.33;;;3.13;;
10174;SDS011;18221;38.704;0.152;2023-02-14T15:52:52;4.47;;;3.77;;
10174;SDS011;18221;38.704;0.152;2023-02-14T15:55:26;4.67;;;3.20;;
10174;SDS011;18221;38.704;0.152;2023-02-14T15:57:57;3.30;;;3.00;;
10174;SDS011;18221;38.704;0.152;2023-02-14T16:00:31;4.60;;;3.20;;
10174;SDS011;18221;38.704;0.152;2023-02-14T16:03:02;5.00;;;3.00;;
10174;SDS011;18221;38.704;0.152;2023-02-14T16:05:37;5.10;;;2.80;;
10174;SDS011;18221;38.704;0.152;2023-02-14T16:08:23;7.13;;;3.47;;
10174;SDS011;18221;38.704;0.152;2023-02-14T16:11:00;6.20;;;3.03;;